Time;durP1;ratioP1;P1;durP2;ratioP2;P2;SDS_P1;SDS_P2;PMS_P1;PMS_P2;Temp;Humidity;BMP_temperature;BMP_pressure;BME280_temperature;BME280_humidity;BME280_pressure;Samples;Min_cycle;Max_cycle;Signal;HPM_P1;HPM_P2
2022/09/23 00:00:18;;;;;;;9.35;5.95;;;17.40;68.30;;;;;;5056904;28;20108;-71
2022/09/23 00:02:47;;;;;;;7.07;5.50;;;17.30;67.90;;;;;;5056711;28;20473;-71
2022/09/23 00:05:13;;;;;;;10.77;5.28;;;17.30;67.90;;;;;;5056863;28;20028;-71
2022/09/23 00:07:39;;;;;;;17.42;7.10;;;17.30;68.00;;;;;;5057823;28;20029;-71
2022/09/23 00:10:05;;;;;;;18.10;7.65;;;17.30;68.40;;;;;;5056842;28;20025;-71
2022/09/23 00:12:32;;;;;;;12.38;8.25;;;17.20;68.50;;;;;;5056807;28;20036;-71
2022/09/23 00:14:57;;;;;;;14.48;7.63;;;17.20;68.60;;;;;;5056373;28;20021;-71
2022/09/23 00:17:23;;;;;;;10.63;7.15;;;17.20;68.70;;;;;;5056217;28;20028;-71
2022/09/23 00:19:49;;;;;;;8.10;6.50;;;17.20;68.90;;;;;;5056367;28;20029;-71
2022/09/23 00:22:15;;;;;;;9.40;6.70;;;17.20;68.90;;;;;;5056618;28;20044;-72
2022/09/23 00:24:40;;;;;;;11.18;6.50;;;17.20;68.90;;;;;;5056570;28;20032;-72
2022/09/23 00:27:06;;;;;;;7.03;5.80;;;17.20;68.90;;;;;;5056178;28;20542;-72
2022/09/23 00:29:32;;;;;;;10.82;6.05;;;17.10;68.90;;;;;;5055786;28;20041;-72
2022/09/23 00:31:58;;;;;;;8.27;6.00;;;17.20;68.90;;;;;;5056157;28;20025;-72
2022/09/23 00:34:23;;;;;;;12.20;6.97;;;17.10;68.90;;;;;;5056342;28;20021;-72
2022/09/23 00:36:49;;;;;;;13.60;7.55;;;17.00;68.60;;;;;;5056162;28;20166;-71
2022/09/23 00:39:14;;;;;;;14.07;6.63;;;16.90;68.80;;;;;;5056132;28;20032;-72
2022/09/23 00:41:40;;;;;;;11.40;6.68;;;16.90;69.00;;;;;;5056050;28;20029;-71
2022/09/23 00:44:41;;;;;;;13.60;6.28;;;16.90;69.20;;;;;;5056144;28;20449;-72
2022/09/23 00:47:25;;;;;;;11.88;7.05;;;16.90;69.20;;;;;;5055711;28;20035;-71
2022/09/23 00:50:22;;;;;;;11.65;6.38;;;16.90;69.40;;;;;;5055991;28;20033;-71
2022/09/23 00:52:49;;;;;;;7.85;5.75;;;16.80;69.80;;;;;;5052414;28;20393;-71
2022/09/23 00:55:25;;;;;;;9.02;6.60;;;16.80;70.50;;;;;;5055683;28;20357;-71
2022/09/23 00:57:55;;;;;;;14.43;7.00;;;16.80;70.50;;;;;;5055667;28;20060;-70
2022/09/23 01:00:22;;;;;;;14.90;6.30;;;16.90;70.00;;;;;;5055829;28;20048;-71
2022/09/23 01:02:47;;;;;;;12.93;6.50;;;16.90;70.00;;;;;;5055054;28;20486;-71
2022/09/23 01:05:14;;;;;;;14.93;7.10;;;16.90;70.10;;;;;;5055581;28;20107;-71
2022/09/23 01:07:39;;;;;;;13.82;6.90;;;16.90;70.00;;;;;;5055297;28;20076;-71
2022/09/23 01:10:06;;;;;;;12.48;7.43;;;16.90;69.70;;;;;;5055378;28;20056;-71
2022/09/23 01:13:11;;;;;;;14.20;5.68;;;16.80;69.70;;;;;;5055400;28;20464;-71
2022/09/23 01:15:48;;;;;;;14.63;6.60;;;16.90;69.90;;;;;;5033196;28;20080;-71
2022/09/23 01:18:26;;;;;;;11.00;6.35;;;16.80;70.10;;;;;;5033012;28;20025;-71
2022/09/23 01:21:00;;;;;;;10.13;5.65;;;16.80;70.20;;;;;;5046924;28;20029;-71
2022/09/23 01:23:45;;;;;;;9.00;5.70;;;16.80;70.20;;;;;;5055514;28;20048;-72
2022/09/23 01:26:41;;;;;;;18.13;7.20;;;16.80;70.30;;;;;;5055412;28;20025;-71
2022/09/23 01:29:37;;;;;;;13.48;6.75;;;16.80;70.20;;;;;;5055055;28;20124;-71
2022/09/23 01:32:35;;;;;;;12.68;6.07;;;16.80;70.10;;;;;;5055214;28;20082;-70
2022/09/23 01:35:08;;;;;;;10.73;6.72;;;16.80;70.10;;;;;;5031675;28;20041;-71
2022/09/23 01:37:43;;;;;;;9.20;5.95;;;16.70;70.30;;;;;;5055191;28;20028;-71
2022/09/23 01:40:13;;;;;;;8.15;5.70;;;16.60;70.40;;;;;;5054968;28;20028;-71
2022/09/23 01:42:51;;;;;;;7.95;5.45;;;16.60;70.60;;;;;;5055092;28;20060;-70
2022/09/23 01:45:40;;;;;;;8.05;5.45;;;16.50;70.80;;;;;;5054837;28;20033;-71
2022/09/23 01:48:15;;;;;;;9.35;5.50;;;16.50;71.50;;;;;;5054754;28;20044;-71
2022/09/23 01:50:56;;;;;;;8.00;4.80;;;16.40;71.10;;;;;;5054709;28;20370;-70
2022/09/23 01:54:02;;;;;;;7.82;5.68;;;16.30;71.20;;;;;;5054830;28;20033;-70
2022/09/23 01:56:42;;;;;;;7.32;5.25;;;16.40;71.50;;;;;;5036685;28;20044;-71
2022/09/23 01:59:20;;;;;;;9.23;5.13;;;16.30;71.50;;;;;;5054453;28;20469;-72
2022/09/23 02:02:35;;;;;;;10.60;5.43;;;16.30;71.70;;;;;;5054840;28;20036;-72
2022/09/23 02:05:09;;;;;;;7.38;5.05;;;16.30;71.90;;;;;;5012333;28;20109;-72
2022/09/23 02:07:38;;;;;;;11.68;5.93;;;16.30;71.90;;;;;;5052066;28;20048;-71
2022/09/23 02:10:16;;;;;;;7.40;5.10;;;16.30;72.00;;;;;;5054516;28;20045;-72
2022/09/23 02:12:48;;;;;;;8.77;4.90;;;16.30;71.90;;;;;;5054319;28;20082;-71
2022/09/23 02:15:19;;;;;;;9.52;4.35;;;16.30;71.90;;;;;;5053360;28;20021;-71
2022/09/23 02:17:53;;;;;;;12.60;6.25;;;16.30;72.00;;;;;;5054447;28;20029;-71
2022/09/23 02:20:23;;;;;;;11.82;5.70;;;16.30;72.20;;;;;;5054214;28;20025;-71
2022/09/23 02:23:06;;;;;;;9.93;5.70;;;16.20;72.30;;;;;;5054154;28;20492;-71
2022/09/23 02:25:42;;;;;;;;;;;16.20;72.50;;;;;;5054392;28;20067;-71
2022/09/23 02:28:13;;;;;;;7.72;4.93;;;16.20;72.70;;;;;;5053730;28;19963;-71
2022/09/23 02:30:47;;;;;;;14.35;5.28;;;16.20;72.60;;;;;;5054202;28;20025;-71
2022/09/23 02:33:21;;;;;;;8.13;4.93;;;16.20;72.60;;;;;;5054250;28;20096;-72
2022/09/23 02:35:54;;;;;;;11.20;4.93;;;16.20;72.70;;;;;;5053920;28;20021;-72
2022/09/23 02:38:40;;;;;;;9.45;5.22;;;16.20;72.70;;;;;;5053565;28;20025;-72
2022/09/23 02:41:15;;;;;;;8.32;4.82;;;16.20;72.80;;;;;;5053705;28;20476;-72
2022/09/23 02:43:55;;;;;;;8.85;5.07;;;16.20;72.90;;;;;;5053783;28;20048;-71
2022/09/23 02:46:22;;;;;;;6.50;4.90;;;16.20;73.10;;;;;;5053525;28;20507;-72
2022/09/23 02:48:59;;;;;;;6.07;5.00;;;16.10;73.10;;;;;;5053936;28;20029;-72
2022/09/23 02:51:27;;;;;;;7.10;5.18;;;16.10;73.20;;;;;;5053870;28;20024;-72
2022/09/23 02:53:55;;;;;;;7.63;5.65;;;16.10;73.20;;;;;;5053774;28;20104;-72
2022/09/23 02:56:21;;;;;;;6.35;4.78;;;16.10;73.40;;;;;;5053565;28;20495;-72
2022/09/23 02:58:51;;;;;;;6.90;5.10;;;16.10;73.40;;;;;;5053295;28;20049;-72
2022/09/23 03:01:34;;;;;;;9.35;5.28;;;16.00;73.40;;;;;;5053440;28;20104;-72
2022/09/23 03:04:37;;;;;;;7.43;5.03;;;16.00;73.60;;;;;;5053479;28;20024;-72
2022/09/23 03:07:24;;;;;;;7.10;5.03;;;15.90;73.80;;;;;;5052983;28;20041;-72
2022/09/23 03:10:19;;;;;;;8.10;4.90;;;15.90;74.10;;;;;;5053238;28;20524;-71
2022/09/23 03:13:12;;;;;;;7.18;4.57;;;15.90;74.30;;;;;;5053642;28;20025;-72
2022/09/23 03:16:01;;;;;;;7.75;4.70;;;15.80;74.30;;;;;;5052868;28;20036;-72
2022/09/23 03:19:02;;;;;;;8.68;5.25;;;15.90;74.30;;;;;;5053263;28;20033;-72
2022/09/23 03:21:45;;;;;;;10.63;5.10;;;15.90;74.30;;;;;;5052973;28;20024;-72
2022/09/23 03:24:13;;;;;;;6.60;4.80;;;15.90;74.30;;;;;;5053440;28;20025;-71
2022/09/23 03:26:42;;;;;;;6.88;5.13;;;15.80;74.20;;;;;;5052403;28;20129;-72
2022/09/23 03:29:10;;;;;;;8.20;5.25;;;15.70;74.30;;;;;;5053011;28;20049;-71
2022/09/23 03:31:41;;;;;;;9.32;5.50;;;15.70;74.50;;;;;;5053192;28;20029;-71
2022/09/23 03:34:20;;;;;;;6.78;4.90;;;15.70;74.90;;;;;;5053360;28;20074;-71
2022/09/23 03:37:01;;;;;;;8.35;5.72;;;15.70;74.80;;;;;;5053002;28;20021;-71
2022/09/23 03:39:43;;;;;;;7.70;5.47;;;15.70;74.80;;;;;;5052827;28;20021;-71
2022/09/23 03:42:20;;;;;;;7.75;5.32;;;15.60;74.90;;;;;;5052979;28;20045;-71
2022/09/23 03:44:47;;;;;;;8.25;4.88;;;15.60;75.10;;;;;;5053111;28;20392;-71
2022/09/23 03:47:15;;;;;;;9.07;5.95;;;15.60;75.10;;;;;;5052778;28;20044;-71
2022/09/23 03:49:44;;;;;;;9.77;5.00;;;15.60;75.10;;;;;;5052876;28;20052;-72
2022/09/23 03:52:10;;;;;;;7.63;4.68;;;15.60;75.30;;;;;;5052765;28;20025;-71
2022/09/23 03:54:35;;;;;;;8.90;5.13;;;15.50;75.40;;;;;;5053124;28;20021;-71
2022/09/23 03:57:01;;;;;;;7.03;4.75;;;15.50;75.40;;;;;;5052835;28;20025;-71
2022/09/23 03:59:29;;;;;;;7.95;5.95;;;15.50;75.80;;;;;;5052851;28;20526;-71
2022/09/23 04:01:55;;;;;;;7.07;5.70;;;15.40;75.90;;;;;;5052457;28;20056;-71
2022/09/23 04:04:21;;;;;;;5.13;4.30;;;15.30;76.00;;;;;;5052981;28;20508;-71
2022/09/23 04:06:47;;;;;;;7.30;5.18;;;15.30;76.10;;;;;;5052906;28;20037;-71
2022/09/23 04:09:12;;;;;;;6.70;5.28;;;15.30;76.10;;;;;;5053000;28;20101;-71
2022/09/23 04:11:38;;;;;;;8.63;5.90;;;15.30;76.10;;;;;;5052481;28;20025;-71
2022/09/23 04:14:04;;;;;;;7.15;5.10;;;15.30;76.20;;;;;;5052562;28;20079;-71
2022/09/23 04:16:30;;;;;;;7.38;5.15;;;15.30;76.20;;;;;;5052836;28;20033;-71
2022/09/23 04:18:55;;;;;;;7.93;5.25;;;15.40;76.20;;;;;;5052662;28;20028;-71
2022/09/23 04:21:21;;;;;;;6.10;4.85;;;15.40;76.20;;;;;;5052860;28;20484;-71
2022/09/23 04:23:47;;;;;;;7.22;5.00;;;15.40;76.20;;;;;;5052639;28;20030;-71
2022/09/23 04:26:13;;;;;;;7.47;5.13;;;15.50;76.20;;;;;;5052545;28;20029;-71
2022/09/23 04:28:39;;;;;;;6.88;5.15;;;15.50;76.20;;;;;;5052444;28;20420;-71
2022/09/23 04:31:06;;;;;;;6.75;4.82;;;15.50;76.20;;;;;;5052709;28;20023;-71
2022/09/23 04:33:32;;;;;;;7.93;4.75;;;15.50;76.20;;;;;;5052524;28;20380;-71
2022/09/23 04:35:59;;;;;;;7.32;4.68;;;15.50;76.30;;;;;;5052468;28;20021;-71
2022/09/23 04:38:24;;;;;;;7.75;4.70;;;15.50;76.30;;;;;;5052924;28;20112;-71
2022/09/23 04:40:50;;;;;;;8.70;5.10;;;15.50;76.30;;;;;;5056172;28;20116;-71
2022/09/23 04:43:16;;;;;;;5.45;4.68;;;15.50;76.20;;;;;;5056287;28;20039;-71
2022/09/23 04:45:44;;;;;;;7.32;4.38;;;15.50;76.20;;;;;;5055842;28;20071;-71
2022/09/23 04:48:11;;;;;;;5.95;4.70;;;15.50;76.20;;;;;;5056127;28;20040;-71
2022/09/23 04:50:37;;;;;;;5.53;4.20;;;15.50;76.30;;;;;;5056000;28;20025;-71
2022/09/23 04:53:03;;;;;;;9.10;5.18;;;15.50;76.20;;;;;;5056096;28;20078;-71
2022/09/23 04:55:29;;;;;;;8.80;4.88;;;15.50;76.20;;;;;;5055812;28;20021;-71
2022/09/23 04:57:55;;;;;;;6.22;4.70;;;15.50;76.20;;;;;;5055580;28;20025;-71
2022/09/23 05:00:22;;;;;;;4.38;3.78;;;15.50;76.20;;;;;;5055740;28;20082;-71
2022/09/23 05:02:49;;;;;;;7.93;4.72;;;15.50;76.20;;;;;;5055925;28;20100;-71
2022/09/23 05:05:19;;;;;;;6.45;4.28;;;15.60;76.30;;;;;;5055290;28;20465;-71
2022/09/23 05:07:48;;;;;;;7.63;4.40;;;15.50;76.30;;;;;;5055778;28;20384;-71
2022/09/23 05:10:15;;;;;;;5.47;4.18;;;15.60;76.30;;;;;;5055570;28;20393;-71
2022/09/23 05:12:40;;;;;;;7.90;4.35;;;15.60;76.20;;;;;;5055544;28;20075;-72
2022/09/23 05:15:08;;;;;;;7.78;3.90;;;15.60;76.10;;;;;;5055541;28;20559;-71
2022/09/23 05:17:36;;;;;;;6.40;4.28;;;15.60;76.10;;;;;;5055074;28;20021;-71
2022/09/23 05:20:02;;;;;;;7.90;4.20;;;15.60;76.20;;;;;;5055369;28;20106;-71
2022/09/23 05:22:29;;;;;;;9.45;4.40;;;15.60;76.20;;;;;;5055495;28;20044;-72
2022/09/23 05:24:55;;;;;;;7.50;4.72;;;15.60;76.10;;;;;;5055176;28;20056;-71
2022/09/23 05:27:20;;;;;;;7.57;4.32;;;15.50;76.90;;;;;;5054797;28;20068;-70
2022/09/23 05:29:47;;;;;;;7.40;4.50;;;15.50;76.40;;;;;;5055070;28;20514;-70
2022/09/23 05:32:14;;;;;;;7.75;4.63;;;15.50;76.40;;;;;;5055275;28;20447;-70
2022/09/23 05:34:39;;;;;;;6.20;4.28;;;15.50;76.50;;;;;;5055289;28;20025;-70
2022/09/23 05:37:05;;;;;;;7.60;4.50;;;15.50;76.50;;;;;;5054853;28;20380;-70
2022/09/23 05:39:31;;;;;;;6.30;4.13;;;15.50;76.60;;;;;;5055218;28;20025;-70
2022/09/23 05:41:59;;;;;;;8.57;5.00;;;15.50;76.60;;;;;;5054813;28;20021;-70
2022/09/23 05:44:24;;;;;;;5.68;3.88;;;15.50;76.60;;;;;;5054731;28;20054;-70
2022/09/23 05:46:50;;;;;;;5.93;4.75;;;15.50;76.70;;;;;;5054878;28;20045;-70
2022/09/23 05:49:16;;;;;;;8.77;4.22;;;15.50;76.80;;;;;;5054856;28;20059;-71
2022/09/23 05:51:41;;;;;;;5.95;4.07;;;15.50;76.90;;;;;;5054635;28;20108;-70
2022/09/23 05:54:07;;;;;;;5.85;4.60;;;15.50;77.00;;;;;;5054787;28;20051;-70
2022/09/23 05:56:33;;;;;;;7.15;4.40;;;15.50;77.20;;;;;;5054698;28;20044;-70
2022/09/23 05:59:00;;;;;;;5.70;4.03;;;15.50;77.30;;;;;;5054621;28;20044;-70
2022/09/23 06:01:30;;;;;;;5.00;4.10;;;15.50;77.50;;;;;;5054220;28;20029;-70
2022/09/23 06:03:57;;;;;;;8.23;4.30;;;15.50;77.50;;;;;;5054408;28;20079;-70
2022/09/23 06:06:34;;;;;;;5.35;4.78;;;15.50;77.70;;;;;;5054503;28;20040;-71
2022/09/23 06:09:00;;;;;;;5.45;4.28;;;15.50;78.00;;;;;;5054240;28;20043;-70
2022/09/23 06:11:29;;;;;;;7.07;4.20;;;15.50;78.10;;;;;;5053789;28;20107;-71
2022/09/23 06:13:59;;;;;;;5.68;4.05;;;15.50;78.20;;;;;;5053648;28;20025;-73
2022/09/23 06:16:25;;;;;;;7.25;4.53;;;15.50;78.40;;;;;;5054040;28;20052;-72
2022/09/23 06:18:51;;;;;;;5.28;3.85;;;15.50;78.70;;;;;;5054277;28;20021;-73
2022/09/23 06:21:17;;;;;;;6.10;4.30;;;15.50;78.80;;;;;;5054371;28;20419;-72
2022/09/23 06:23:44;;;;;;;6.35;4.60;;;15.50;78.90;;;;;;5053684;28;20021;-72
2022/09/23 06:26:12;;;;;;;5.63;3.83;;;15.50;78.90;;;;;;5053899;28;20037;-71
2022/09/23 06:28:40;;;;;;;6.75;3.85;;;15.50;78.80;;;;;;5053790;28;20064;-71
2022/09/23 06:31:16;;;;;;;5.65;4.00;;;15.50;78.90;;;;;;5053894;28;20063;-71
2022/09/23 06:33:43;;;;;;;6.40;3.40;;;15.40;78.80;;;;;;5054404;28;20025;-72
2022/09/23 06:36:10;;;;;;;5.28;3.38;;;15.50;78.60;;;;;;5053462;28;20021;-72
2022/09/23 06:38:42;;;;;;;5.07;4.00;;;15.50;78.80;;;;;;5053931;28;20036;-71
2022/09/23 06:41:08;;;;;;;4.97;3.90;;;15.50;78.90;;;;;;5052197;28;20127;-72
2022/09/23 06:43:34;;;;;;;5.82;4.00;;;15.50;78.70;;;;;;5053269;28;20080;-72
2022/09/23 06:46:02;;;;;;;7.35;3.78;;;15.50;78.80;;;;;;5053655;28;20496;-74
2022/09/23 06:48:28;;;;;;;4.10;3.53;;;15.50;78.20;;;;;;5053720;28;20029;-73
2022/09/23 06:50:58;;;;;;;9.20;3.85;;;15.60;78.10;;;;;;5053440;28;20021;-74
2022/09/23 06:53:24;;;;;;;6.88;4.00;;;15.60;77.90;;;;;;5054598;28;20480;-72
2022/09/23 06:56:03;;;;;;;6.57;4.05;;;15.50;77.80;;;;;;5073642;28;20028;-73
2022/09/23 06:58:30;;;;;;;8.93;3.95;;;15.40;77.80;;;;;;5073706;28;20033;-72
2022/09/23 07:01:08;;;;;;;5.43;3.65;;;15.50;78.00;;;;;;5057657;28;20036;-73
2022/09/23 07:03:34;;;;;;;5.90;3.50;;;15.50;78.00;;;;;;5053165;28;20056;-74
2022/09/23 07:06:00;;;;;;;5.70;4.15;;;15.50;77.90;;;;;;5053164;28;20620;-73
2022/09/23 07:08:28;;;;;;;4.30;3.90;;;15.50;77.80;;;;;;5058662;28;20056;-74
2022/09/23 07:10:55;;;;;;;9.45;3.63;;;15.50;77.60;;;;;;5052868;28;20036;-73
2022/09/23 07:13:21;;;;;;;6.47;4.05;;;15.50;78.10;;;;;;5053032;28;20032;-73
2022/09/23 07:15:50;;;;;;;5.95;3.95;;;15.60;77.50;;;;;;5052776;28;20099;-72
2022/09/23 07:18:17;;;;;;;7.78;3.80;;;15.50;77.40;;;;;;5053129;28;20020;-73
2022/09/23 07:20:43;;;;;;;4.57;3.70;;;15.50;77.50;;;;;;5054201;28;20025;-73
2022/09/23 07:23:08;;;;;;;6.43;4.25;;;15.50;77.50;;;;;;5071843;28;20029;-73
2022/09/23 07:25:34;;;;;;;5.90;4.07;;;15.50;77.80;;;;;;5063108;28;20078;-74
2022/09/23 07:28:00;;;;;;;4.65;3.85;;;15.60;78.20;;;;;;5055370;28;20059;-76
2022/09/23 07:30:26;;;;;;;6.53;3.88;;;15.50;78.40;;;;;;5067943;28;20028;-78
2022/09/23 07:32:52;;;;;;;7.30;4.07;;;15.50;78.60;;;;;;5061753;28;20075;-78
2022/09/23 07:35:18;;;;;;;7.70;4.45;;;15.60;78.90;;;;;;5069523;28;20427;-76
2022/09/23 07:37:44;;;;;;;5.25;3.88;;;15.60;78.90;;;;;;5068470;28;20066;-76
2022/09/23 07:40:11;;;;;;;7.88;4.63;;;15.50;79.00;;;;;;5059638;28;20060;-75
2022/09/23 07:42:38;;;;;;;14.38;4.55;;;15.50;79.10;;;;;;5065170;28;20112;-74
2022/09/23 07:45:06;;;;;;;5.55;3.55;;;15.50;79.00;;;;;;5052098;28;20064;-76
2022/09/23 07:47:31;;;;;;;8.05;4.90;;;15.50;79.30;;;;;;5053200;28;20480;-75
2022/09/23 07:49:57;;;;;;;7.72;4.00;;;15.50;79.50;;;;;;5053254;28;20102;-74
2022/09/23 07:52:23;;;;;;;9.95;4.05;;;15.50;79.60;;;;;;5053689;28;20025;-74
2022/09/23 07:54:48;;;;;;;7.40;4.18;;;15.50;79.50;;;;;;5062205;28;20057;-75
2022/09/23 07:57:14;;;;;;;8.05;4.72;;;15.60;79.20;;;;;;5064400;28;20043;-73
2022/09/23 07:59:39;;;;;;;6.63;4.53;;;15.60;79.10;;;;;;5058073;28;20029;-75
2022/09/23 08:02:05;;;;;;;8.50;4.65;;;15.60;79.30;;;;;;5055815;28;20067;-73
2022/09/23 08:04:31;;;;;;;7.20;4.57;;;15.60;79.70;;;;;;5052725;28;20052;-73
2022/09/23 08:07:03;;;;;;;6.32;4.68;;;15.60;79.50;;;;;;5052237;28;20032;-76
2022/09/23 08:09:38;;;;;;;7.97;4.18;;;15.60;79.10;;;;;;5052703;28;20033;-76
2022/09/23 08:12:04;;;;;;;6.13;4.10;;;15.60;78.90;;;;;;5052579;28;20053;-75
2022/09/23 08:14:30;;;;;;;6.50;4.20;;;15.70;78.50;;;;;;5054444;28;20021;-74
2022/09/23 08:16:56;;;;;;;7.47;4.20;;;15.80;78.90;;;;;;5056254;28;20368;-71
2022/09/23 08:19:21;;;;;;;6.53;4.80;;;15.80;78.80;;;;;;5056464;28;20025;-71
2022/09/23 08:21:50;;;;;;;7.55;4.25;;;15.70;78.70;;;;;;5056587;28;20025;-71
2022/09/23 08:24:18;;;;;;;5.65;4.53;;;15.70;79.20;;;;;;5055756;28;20033;-71
2022/09/23 08:26:45;;;;;;;8.80;4.45;;;15.70;79.30;;;;;;5055525;28;20087;-71
2022/09/23 08:29:12;;;;;;;7.80;4.00;;;15.70;79.90;;;;;;5055279;28;20497;-71
2022/09/23 08:31:37;;;;;;;5.43;4.20;;;15.90;79.50;;;;;;5056116;28;20078;-71
2022/09/23 08:34:03;;;;;;;9.93;4.57;;;15.90;78.60;;;;;;5056407;28;20017;-71
2022/09/23 08:36:30;;;;;;;4.75;4.00;;;16.00;78.40;;;;;;5056273;28;20017;-71
2022/09/23 08:38:56;;;;;;;7.43;3.90;;;16.00;78.20;;;;;;5056265;28;20025;-71
2022/09/23 08:41:29;;;;;;;8.30;4.75;;;16.00;78.10;;;;;;5056020;28;20032;-71
2022/09/23 08:44:02;;;;;;;6.25;4.57;;;16.10;78.80;;;;;;5056299;28;20052;-71
2022/09/23 08:46:36;;;;;;;6.95;3.97;;;16.10;78.80;;;;;;5056135;28;20039;-71
2022/09/23 08:49:03;;;;;;;6.28;4.53;;;16.10;78.70;;;;;;5055636;28;20028;-70
2022/09/23 08:51:44;;;;;;;9.73;4.57;;;16.10;78.40;;;;;;5055624;28;20100;-71
2022/09/23 08:54:11;;;;;;;7.95;4.50;;;16.10;78.40;;;;;;5055190;28;20500;-70
2022/09/23 08:56:37;;;;;;;4.72;3.65;;;16.10;78.90;;;;;;5055631;28;20032;-71
2022/09/23 08:59:12;;;;;;;6.53;3.58;;;16.20;78.50;;;;;;5055911;28;20055;-71
2022/09/23 09:02:05;;;;;;;6.28;3.50;;;16.30;78.40;;;;;;5055442;28;20376;-72
2022/09/23 09:04:43;;;;;;;8.18;4.43;;;16.40;78.30;;;;;;5055818;28;20071;-73
2022/09/23 09:07:12;;;;;;;9.07;4.10;;;16.40;78.20;;;;;;5054613;28;20051;-72
2022/09/23 09:10:02;;;;;;;6.97;4.53;;;16.50;77.90;;;;;;5054964;28;20045;-71
2022/09/23 09:12:39;;;;;;;7.38;4.68;;;16.60;77.60;;;;;;5055222;28;20531;-70
2022/09/23 09:15:21;;;;;;;11.13;4.93;;;16.60;78.60;;;;;;5055622;28;20031;-69
2022/09/23 09:17:53;;;;;;;7.50;4.53;;;16.50;78.60;;;;;;5055288;28;20487;-71
2022/09/23 09:20:38;;;;;;;8.85;4.60;;;16.50;79.30;;;;;;5055697;28;20255;-72
2022/09/23 09:23:20;;;;;;;7.35;4.80;;;16.50;78.90;;;;;;5054934;28;20032;-72
2022/09/23 09:25:53;;;;;;;7.25;4.20;;;16.60;78.80;;;;;;5054602;28;20025;-69
2022/09/23 09:28:41;;;;;;;7.40;4.50;;;16.70;77.80;;;;;;5054974;28;20037;-70
2022/09/23 09:31:34;;;;;;;7.85;4.72;;;16.80;77.70;;;;;;5054929;28;20086;-70
2022/09/23 09:34:27;;;;;;;9.00;5.30;;;16.80;78.40;;;;;;5055228;28;20423;-71
2022/09/23 09:37:05;;;;;;;6.15;4.28;;;16.80;78.10;;;;;;5055156;28;20105;-71
2022/09/23 09:39:32;;;;;;;8.38;4.07;;;16.80;78.20;;;;;;5054350;28;20063;-71
2022/09/23 09:41:59;;;;;;;5.93;4.13;;;16.90;78.70;;;;;;5054856;28;20048;-71
2022/09/23 09:44:48;;;;;;;4.90;3.75;;;16.90;78.70;;;;;;5054534;28;20036;-72
2022/09/23 09:47:46;;;;;;;6.25;4.15;;;17.00;77.90;;;;;;5055048;28;20041;-72
2022/09/23 09:50:20;;;;;;;5.78;3.65;;;17.10;77.70;;;;;;5054618;28;20036;-70
2022/09/23 09:52:47;;;;;;;6.18;4.35;;;17.20;77.50;;;;;;5054909;28;20032;-71
2022/09/23 09:55:12;;;;;;;8.85;4.20;;;17.30;77.40;;;;;;5054630;28;20021;-71
2022/09/23 09:57:51;;;;;;;7.10;3.85;;;17.30;77.90;;;;;;5054433;28;20051;-71
2022/09/23 10:00:25;;;;;;;10.15;3.80;;;17.40;77.90;;;;;;5054510;28;20025;-72
2022/09/23 10:03:12;;;;;;;7.95;4.32;;;17.40;77.50;;;;;;5054334;28;20029;-72
2022/09/23 10:05:44;;;;;;;6.35;3.78;;;17.50;77.60;;;;;;5057710;28;20087;-72
2022/09/23 10:08:25;;;;;;;8.23;4.78;;;17.50;77.50;;;;;;5065936;28;20036;-72
2022/09/23 10:10:57;;;;;;;6.85;4.00;;;17.60;77.60;;;;;;5060540;28;20016;-72
2022/09/23 10:13:23;;;;;;;8.20;5.00;;;17.60;77.50;;;;;;5054114;28;20062;-71
2022/09/23 10:15:53;;;;;;;9.50;5.68;;;17.70;77.60;;;;;;5053820;28;20117;-72
2022/09/23 10:18:48;;;;;;;6.15;4.70;;;17.70;78.70;;;;;;5053965;28;20029;-71
2022/09/23 10:21:16;;;;;;;5.90;4.03;;;17.70;77.60;;;;;;5056378;28;20262;-71
2022/09/23 10:23:51;;;;;;;7.13;4.32;;;17.80;77.00;;;;;;5068862;28;20031;-71
2022/09/23 10:26:25;;;;;;;8.80;5.68;;;17.90;77.00;;;;;;5058893;28;20400;-70
2022/09/23 10:29:00;;;;;;;6.70;4.80;;;18.00;77.10;;;;;;5067263;28;20051;-71
2022/09/23 10:31:35;;;;;;;7.50;4.22;;;18.00;76.30;;;;;;5060652;28;20056;-71
2022/09/23 10:34:23;;;;;;;6.60;4.00;;;18.10;76.00;;;;;;5054536;28;20025;-71
2022/09/23 10:37:13;;;;;;;8.20;4.43;;;18.20;76.00;;;;;;5064197;28;20029;-71
2022/09/23 10:48:23;;;;;;;10.75;6.10;;;18.40;74.30;;;;;;5061209;28;20043;-71
2022/09/23 10:50:51;;;;;;;9.07;4.57;;;18.50;73.60;;;;;;5070737;28;20032;-71
2022/09/23 10:53:27;;;;;;;6.78;4.30;;;18.60;73.90;;;;;;5060301;28;20031;-71
2022/09/23 10:56:30;;;;;;;7.18;3.80;;;18.70;72.90;;;;;;5063935;28;20056;-71
2022/09/23 10:59:28;;;;;;;5.22;3.72;;;18.70;71.60;;;;;;5039867;28;20388;-71
2022/09/23 11:02:35;;;;;;;5.72;3.67;;;18.80;71.80;;;;;;5058695;28;20037;-71
2022/09/23 11:05:31;;;;;;;5.78;3.95;;;18.80;72.00;;;;;;4989425;28;20053;-72
2022/09/23 11:08:23;;;;;;;5.90;3.60;;;18.80;71.70;;;;;;5056214;28;20040;-71
2022/09/23 11:10:56;;;;;;;6.13;3.57;;;18.80;72.50;;;;;;5050917;28;20033;-71
2022/09/23 11:13:42;;;;;;;5.07;3.75;;;18.70;73.60;;;;;;5055425;28;20283;-71
2022/09/23 11:16:30;;;;;;;9.10;4.05;;;18.70;73.80;;;;;;5070064;28;20032;-71
2022/09/23 11:19:23;;;;;;;6.80;3.92;;;18.70;73.20;;;;;;5068840;28;20376;-71
2022/09/23 11:22:07;;;;;;;6.82;3.92;;;18.60;72.10;;;;;;5069922;28;20042;-71
2022/09/23 11:24:50;;;;;;;5.10;3.30;;;18.60;73.00;;;;;;5070664;28;20032;-72
2022/09/23 11:27:16;;;;;;;8.25;3.92;;;18.60;74.60;;;;;;5068249;28;20040;-72
2022/09/23 11:30:06;;;;;;;7.72;3.70;;;18.60;73.70;;;;;;5058936;28;20028;-71
2022/09/23 11:32:49;;;;;;;6.05;3.60;;;18.60;73.50;;;;;;5054100;28;20076;-71
2022/09/23 11:35:23;;;;;;;8.10;4.15;;;18.60;73.30;;;;;;5053580;28;20025;-71
2022/09/23 11:37:55;;;;;;;9.25;4.10;;;18.50;72.80;;;;;;5057509;28;20107;-71
2022/09/23 11:40:30;;;;;;;8.80;4.03;;;18.60;73.00;;;;;;5062752;28;20029;-71
2022/09/23 11:43:03;;;;;;;4.85;3.97;;;18.60;73.50;;;;;;5068282;28;20029;-71
2022/09/23 11:45:35;;;;;;;8.95;3.80;;;18.60;74.10;;;;;;5069923;28;20054;-71
2022/09/23 11:48:21;;;;;;;5.38;4.00;;;18.60;73.90;;;;;;5069965;28;20040;-71
2022/09/23 11:50:55;;;;;;;5.72;3.70;;;18.60;73.70;;;;;;5056197;28;20068;-71
2022/09/23 11:54:01;;;;;;;7.10;3.50;;;18.60;73.80;;;;;;5057477;28;20040;-71
2022/09/23 11:56:33;;;;;;;4.72;3.22;;;18.60;73.60;;;;;;5062351;28;20472;-72
2022/09/23 11:59:19;;;;;;;6.05;3.83;;;18.60;73.50;;;;;;5060007;28;20099;-72
2022/09/23 12:01:50;;;;;;;7.25;3.55;;;18.70;73.60;;;;;;5055989;28;20083;-71
2022/09/23 12:04:28;;;;;;;11.98;3.63;;;18.70;74.00;;;;;;5056299;28;20036;-72
2022/09/23 12:07:07;;;;;;;7.03;3.70;;;18.70;74.20;;;;;;5066535;28;20395;-72
2022/09/23 12:09:41;;;;;;;8.98;4.28;;;18.70;74.00;;;;;;5068515;28;20370;-72
2022/09/23 12:12:27;;;;;;;6.05;4.00;;;18.70;73.60;;;;;;5070223;28;20109;-72
2022/09/23 12:15:01;;;;;;;5.82;3.83;;;18.80;73.10;;;;;;5054182;28;20379;-71
2022/09/23 12:17:43;;;;;;;4.53;3.50;;;18.80;73.20;;;;;;5064325;28;20032;-72
2022/09/23 12:20:30;;;;;;;6.63;3.83;;;18.80;73.40;;;;;;5057198;28;20028;-71
2022/09/23 12:23:19;;;;;;;6.75;3.80;;;18.80;72.50;;;;;;5066261;28;20024;-71
2022/09/23 12:25:51;;;;;;;8.48;3.83;;;18.90;73.10;;;;;;5073769;28;20376;-72
2022/09/23 12:28:28;;;;;;;5.60;3.40;;;18.90;73.40;;;;;;5072430;28;20048;-72
2022/09/23 12:30:58;;;;;;;7.55;4.25;;;18.90;73.90;;;;;;5072807;28;20028;-72
2022/09/23 12:33:30;;;;;;;5.78;3.60;;;18.90;72.40;;;;;;5060806;28;20037;-72
2022/09/23 12:36:05;;;;;;;5.97;4.00;;;19.00;72.60;;;;;;5066091;28;20044;-70
2022/09/23 12:38:33;;;;;;;8.50;4.30;;;19.00;73.00;;;;;;5054867;28;20025;-71
2022/09/23 12:40:59;;;;;;;9.43;4.07;;;19.00;73.20;;;;;;5063853;28;20044;-71
2022/09/23 12:43:33;;;;;;;6.65;4.57;;;19.10;73.20;;;;;;5072435;28;20526;-71
2022/09/23 12:46:26;;;;;;;8.55;4.40;;;19.20;72.90;;;;;;5072997;28;20510;-70
2022/09/23 12:48:57;;;;;;;6.40;4.68;;;19.30;72.50;;;;;;5055401;28;20082;-71
2022/09/23 12:51:34;;;;;;;8.07;4.80;;;19.30;71.50;;;;;;5067314;28;20043;-72
2022/09/23 12:54:03;;;;;;;10.68;5.15;;;19.30;71.30;;;;;;5056102;28;20274;-71
2022/09/23 12:56:37;;;;;;;12.50;4.75;;;19.30;72.70;;;;;;5069271;28;20031;-71
2022/09/23 12:59:24;;;;;;;8.27;4.90;;;19.30;72.70;;;;;;5070795;28;20029;-72
2022/09/23 13:01:50;;;;;;;8.20;4.50;;;19.30;72.70;;;;;;5069416;28;20112;-72
2022/09/23 13:07:16;;;;;;;8.02;5.13;;;19.30;72.60;;;;;;5055827;28;20055;-71
2022/09/23 13:09:47;;;;;;;9.57;5.45;;;19.30;71.80;;;;;;5054898;28;20033;-71
2022/09/23 13:12:34;;;;;;;11.05;5.05;;;19.30;71.70;;;;;;5061127;28;20033;-71
2022/09/23 13:15:05;;;;;;;8.07;5.00;;;19.30;72.10;;;;;;5055128;28;20044;-71
2022/09/23 13:17:37;;;;;;;9.57;5.18;;;19.30;72.50;;;;;;5055672;28;20551;-71
2022/09/23 13:20:18;;;;;;;12.60;5.60;;;19.30;72.50;;;;;;5061017;28;20097;-72
2022/09/23 13:22:53;;;;;;;9.45;4.93;;;19.40;72.60;;;;;;5062876;28;20403;-72
2022/09/23 13:25:23;;;;;;;6.53;4.40;;;19.30;72.20;;;;;;5069670;28;20048;-71
2022/09/23 13:27:54;;;;;;;9.60;4.80;;;19.30;72.00;;;;;;5065823;28;20044;-71